Time;durP1;ratioP1;P1;durP2;ratioP2;P2;SDS_P1;SDS_P2;PMS_P1;PMS_P2;Temp;Humidity;BMP_temperature;BMP_pressure;BME280_temperature;BME280_humidity;BME280_pressure;Samples;Min_cycle;Max_cycle;Signal;HPM_P1;HPM_P2
2022/04/25 00:00:54;;;;;;;16.88;10.98;;;10.90;99.90;;;;;;4896027;29;20025;-69
2022/04/25 00:03:19;;;;;;;12.63;10.85;;;10.90;99.90;;;;;;4895472;29;20071;-69
2022/04/25 00:05:45;;;;;;;14.77;11.48;;;11.00;99.90;;;;;;4894956;29;20036;-70
2022/04/25 00:08:11;;;;;;;17.95;12.93;;;10.90;99.90;;;;;;4895506;29;20029;-68
2022/04/25 00:10:37;;;;;;;16.13;11.00;;;10.90;99.90;;;;;;4895816;29;20509;-70
2022/04/25 00:13:03;;;;;;;11.13;9.93;;;10.90;99.90;;;;;;4878541;29;20036;-68
2022/04/25 00:15:29;;;;;;;11.52;10.38;;;11.00;99.90;;;;;;4896161;29;20045;-69
2022/04/25 00:17:55;;;;;;;13.27;11.20;;;10.90;99.90;;;;;;4896012;29;20028;-69
2022/04/25 00:20:20;;;;;;;13.45;11.32;;;10.90;99.90;;;;;;4893955;29;20056;-68
2022/04/25 00:22:46;;;;;;;13.70;12.02;;;10.90;99.90;;;;;;4896094;29;20028;-68
2022/04/25 00:25:12;;;;;;;12.55;11.15;;;10.90;99.90;;;;;;4893782;29;20214;-68
2022/04/25 00:27:38;;;;;;;13.98;11.35;;;10.90;99.90;;;;;;4895955;29;20037;-70
2022/04/25 00:30:05;;;;;;;13.60;11.63;;;10.90;99.90;;;;;;4893977;29;20036;-69
2022/04/25 00:32:31;;;;;;;12.85;11.43;;;10.90;99.90;;;;;;4895920;29;20033;-69
2022/04/25 00:34:56;;;;;;;18.90;11.77;;;10.90;99.90;;;;;;4895895;29;20044;-70
2022/04/25 00:37:22;;;;;;;12.77;11.48;;;10.90;99.90;;;;;;4878436;29;20469;-71
2022/04/25 00:39:48;;;;;;;13.48;11.65;;;10.80;99.90;;;;;;4895583;29;20475;-70
2022/04/25 00:42:14;;;;;;;14.23;11.02;;;10.80;99.90;;;;;;4878370;29;20059;-71
2022/04/25 00:44:41;;;;;;;14.65;10.60;;;10.80;99.90;;;;;;4894177;29;20143;-69
2022/04/25 00:47:09;;;;;;;12.75;11.43;;;10.90;99.90;;;;;;4895129;29;20475;-69
2022/04/25 00:49:34;;;;;;;14.00;11.95;;;10.80;99.90;;;;;;4895446;29;20457;-71
2022/04/25 00:52:00;;;;;;;15.68;11.60;;;10.80;99.90;;;;;;4895708;29;20068;-69
2022/04/25 00:54:26;;;;;;;13.73;10.90;;;10.70;99.90;;;;;;4877919;29;20039;-71
2022/04/25 00:56:51;;;;;;;12.45;11.07;;;10.60;99.90;;;;;;4894307;29;20028;-71
2022/04/25 00:59:21;;;;;;;13.00;11.25;;;10.60;99.90;;;;;;4895319;29;20454;-68
2022/04/25 01:01:47;;;;;;;14.02;11.70;;;10.70;99.90;;;;;;4895707;29;20029;-69
2022/04/25 01:04:13;;;;;;;13.63;12.18;;;10.70;99.90;;;;;;4895820;29;20096;-68
2022/04/25 01:06:40;;;;;;;12.48;10.95;;;10.70;99.90;;;;;;4897770;29;20394;-69
2022/04/25 01:09:06;;;;;;;13.60;12.20;;;10.70;99.90;;;;;;4881431;29;20044;-67
2022/04/25 01:11:32;;;;;;;19.50;12.13;;;10.60;99.90;;;;;;4881791;29;20060;-68
2022/04/25 01:14:08;;;;;;;12.55;11.25;;;10.70;99.90;;;;;;4898769;29;20024;-71
2022/04/25 01:16:34;;;;;;;14.32;11.85;;;10.80;99.90;;;;;;4899086;29;20036;-69
2022/04/25 01:18:59;;;;;;;13.75;11.80;;;10.70;99.90;;;;;;4898660;29;20028;-69
2022/04/25 01:21:25;;;;;;;18.45;12.27;;;10.70;99.90;;;;;;4897928;29;20314;-69
2022/04/25 01:29:19;;;;;;;13.50;12.10;;;10.60;99.90;;;;;;4898187;29;20128;-68
2022/04/25 01:31:44;;;;;;;14.57;12.48;;;10.50;99.90;;;;;;4881743;29;20107;-68
2022/04/25 01:34:10;;;;;;;14.32;12.40;;;10.50;99.90;;;;;;4898051;29;20037;-68
2022/04/25 01:36:35;;;;;;;16.63;12.48;;;10.50;99.90;;;;;;4898307;29;20448;-68
2022/04/25 01:39:01;;;;;;;13.27;11.77;;;10.40;99.90;;;;;;4898355;29;20148;-68
2022/04/25 01:41:27;;;;;;;15.63;12.73;;;10.40;99.90;;;;;;4881028;29;20040;-68
2022/04/25 01:43:52;;;;;;;16.35;12.75;;;10.40;99.90;;;;;;4881741;29;20115;-69
2022/04/25 01:46:18;;;;;;;15.60;13.15;;;10.50;99.90;;;;;;4881092;29;20120;-68
2022/04/25 01:48:43;;;;;;;16.33;12.93;;;10.40;99.90;;;;;;4898143;29;20040;-69
2022/04/25 01:51:10;;;;;;;15.38;13.52;;;10.30;99.90;;;;;;4897891;29;20198;-69
2022/04/25 01:53:36;;;;;;;15.40;12.95;;;10.30;99.90;;;;;;4898153;29;20123;-69
2022/04/25 01:56:02;;;;;;;14.48;12.98;;;10.20;99.90;;;;;;4898489;29;20065;-70
2022/04/25 01:58:27;;;;;;;16.73;13.52;;;10.20;99.90;;;;;;4880774;29;20300;-69
2022/04/25 02:00:53;;;;;;;16.38;14.25;;;10.30;99.90;;;;;;4881398;29;20035;-71
2022/04/25 02:03:19;;;;;;;18.42;15.32;;;10.20;99.90;;;;;;4897355;29;20109;-69
2022/04/25 02:05:44;;;;;;;19.75;14.85;;;10.20;99.90;;;;;;4881156;29;20123;-69
2022/04/25 02:08:10;;;;;;;17.40;14.50;;;10.20;99.90;;;;;;4897640;29;20029;-69
2022/04/25 02:10:35;;;;;;;18.75;14.25;;;10.20;99.90;;;;;;4877474;29;20136;-70
2022/04/25 02:13:01;;;;;;;18.90;15.20;;;10.20;99.90;;;;;;4878906;29;20397;-69
2022/04/25 02:15:27;;;;;;;18.30;16.30;;;10.20;99.90;;;;;;4878010;29;20439;-68
2022/04/25 02:17:52;;;;;;;17.15;15.35;;;10.20;99.90;;;;;;4879536;29;20040;-70
2022/04/25 02:20:18;;;;;;;17.17;15.10;;;10.10;99.90;;;;;;4877379;29;20463;-69
2022/04/25 02:22:44;;;;;;;18.60;15.10;;;10.10;99.90;;;;;;4879385;29;20041;-69
2022/04/25 02:25:10;;;;;;;21.75;16.02;;;10.10;99.90;;;;;;4892899;29;20033;-68
2022/04/25 02:27:36;;;;;;;18.38;16.10;;;10.10;99.90;;;;;;4893270;29;20045;-69
2022/04/25 02:30:03;;;;;;;18.63;15.73;;;10.10;99.90;;;;;;4877574;29;20028;-70
2022/04/25 02:32:30;;;;;;;18.40;16.40;;;10.10;99.90;;;;;;4878371;29;20029;-69
2022/04/25 02:34:56;;;;;;;21.63;16.83;;;10.10;99.90;;;;;;4877557;29;20486;-70
2022/04/25 02:37:22;;;;;;;22.02;16.20;;;10.10;99.90;;;;;;4877297;29;20033;-68
2022/04/25 02:39:47;;;;;;;21.23;15.55;;;10.10;99.90;;;;;;4878607;29;20035;-70
2022/04/25 02:42:13;;;;;;;19.38;15.88;;;10.10;99.90;;;;;;4878554;29;20037;-69
2022/04/25 02:44:38;;;;;;;22.50;16.05;;;10.10;99.90;;;;;;4877356;29;20029;-70
2022/04/25 02:47:04;;;;;;;19.13;16.10;;;10.20;99.90;;;;;;4877432;29;20124;-69
2022/04/25 02:49:30;;;;;;;21.30;16.27;;;10.10;99.90;;;;;;4892391;29;20033;-69
2022/04/25 02:51:56;;;;;;;18.90;15.43;;;10.10;99.90;;;;;;4878721;29;20029;-69
2022/04/25 02:54:22;;;;;;;18.92;16.17;;;10.10;99.90;;;;;;4876631;29;20028;-70
2022/04/25 02:56:48;;;;;;;19.45;16.88;;;10.10;99.90;;;;;;4892790;29;20025;-70
2022/04/25 02:59:14;;;;;;;20.48;16.85;;;9.90;99.90;;;;;;4877928;29;20029;-69
2022/04/25 03:01:41;;;;;;;21.30;16.77;;;9.90;99.90;;;;;;4878439;29;20037;-70
2022/04/25 03:04:07;;;;;;;20.70;16.55;;;9.90;99.90;;;;;;4878175;29;20077;-69
2022/04/25 03:06:33;;;;;;;19.10;16.85;;;9.80;99.90;;;;;;4877979;29;20069;-70
2022/04/25 03:08:58;;;;;;;21.83;16.65;;;9.80;99.90;;;;;;4878391;29;20077;-69
2022/04/25 03:11:25;;;;;;;19.73;17.10;;;9.80;99.90;;;;;;4893067;29;20544;-69
2022/04/25 03:13:52;;;;;;;20.20;17.60;;;9.70;99.90;;;;;;4896871;29;20025;-70
2022/04/25 03:16:19;;;;;;;18.80;15.25;;;9.80;99.90;;;;;;4895996;29;20021;-71
2022/04/25 03:18:45;;;;;;;19.75;15.57;;;9.80;99.90;;;;;;4896534;29;20028;-69
2022/04/25 03:21:11;;;;;;;18.63;16.02;;;9.90;99.90;;;;;;4895522;29;20029;-69
2022/04/25 03:23:37;;;;;;;22.23;16.10;;;10.00;99.90;;;;;;4894586;29;20033;-68
2022/04/25 03:26:04;;;;;;;18.42;15.80;;;9.90;99.90;;;;;;4896646;29;20427;-69
2022/04/25 03:28:30;;;;;;;21.83;16.90;;;10.00;99.90;;;;;;4878455;29;20336;-71
2022/04/25 03:30:55;;;;;;;18.60;16.13;;;10.00;99.90;;;;;;4896457;29;20140;-69
2022/04/25 03:33:21;;;;;;;20.48;17.05;;;10.00;99.90;;;;;;4896233;29;20103;-69
2022/04/25 03:35:47;;;;;;;20.30;16.98;;;10.00;99.90;;;;;;4896368;29;20161;-70
2022/04/25 03:38:18;;;;;;;23.02;17.35;;;10.00;99.90;;;;;;4896353;29;20072;-70
2022/04/25 03:40:44;;;;;;;18.42;16.10;;;10.00;99.90;;;;;;4896525;29;20041;-68
2022/04/25 03:43:10;;;;;;;21.65;16.45;;;10.10;99.90;;;;;;4879145;29;20044;-69
2022/04/25 03:45:36;;;;;;;18.95;15.60;;;10.20;99.90;;;;;;4895846;29;20029;-70
2022/04/25 03:48:03;;;;;;;20.38;16.30;;;10.20;99.90;;;;;;4896217;29;20032;-70
2022/04/25 03:50:31;;;;;;;18.52;16.52;;;10.20;99.90;;;;;;4895798;29;20029;-69
2022/04/25 03:52:57;;;;;;;22.88;15.95;;;10.10;99.90;;;;;;4879610;29;20029;-70
2022/04/25 03:58:06;;;;;;;19.23;15.82;;;10.10;99.90;;;;;;4896368;29;20493;-69
2022/04/25 04:00:34;;;;;;;19.23;16.35;;;10.10;99.90;;;;;;4895435;29;20032;-69
2022/04/25 04:02:59;;;;;;;20.85;16.35;;;10.20;99.90;;;;;;4896379;29;20115;-70
2022/04/25 04:05:26;;;;;;;18.65;15.90;;;10.20;99.90;;;;;;4894340;29;20409;-68
2022/04/25 04:07:53;;;;;;;16.40;14.63;;;10.20;99.90;;;;;;4896687;29;20111;-70
2022/04/25 04:10:19;;;;;;;19.70;15.90;;;10.20;99.90;;;;;;4895166;29;20101;-69
2022/04/25 04:12:48;;;;;;;20.35;16.60;;;10.10;99.90;;;;;;4879345;29;20029;-69
2022/04/25 04:15:16;;;;;;;20.00;16.73;;;10.10;99.90;;;;;;4879307;29;20029;-68
2022/04/25 04:17:42;;;;;;;20.15;15.82;;;10.10;99.90;;;;;;4879349;29;20116;-69
2022/04/25 04:20:08;;;;;;;20.75;16.23;;;10.10;99.90;;;;;;4896058;29;20033;-70
2022/04/25 04:22:35;;;;;;;17.05;15.18;;;10.10;99.90;;;;;;4895222;29;20067;-69
2022/04/25 04:25:12;;;;;;;18.52;15.65;;;10.20;99.90;;;;;;4879159;29;20060;-69
2022/04/25 04:27:39;;;;;;;17.23;14.40;;;10.20;99.90;;;;;;4895545;29;20040;-69
2022/04/25 04:30:10;;;;;;;18.73;16.70;;;10.20;99.90;;;;;;4879277;29;20043;-69
2022/04/25 04:32:40;;;;;;;19.75;14.65;;;10.10;99.90;;;;;;4878667;29;20115;-69
2022/04/25 04:35:08;;;;;;;20.02;14.98;;;10.30;99.90;;;;;;4895946;29;20036;-69
2022/04/25 04:37:34;;;;;;;19.23;14.98;;;10.40;99.90;;;;;;4894156;29;20588;-69
2022/04/25 04:42:44;;;;;;;15.13;13.45;;;10.50;99.90;;;;;;4899827;29;20095;-68
2022/04/25 04:45:11;;;;;;;17.90;14.90;;;10.50;99.90;;;;;;4898194;29;20119;-69
2022/04/25 04:47:38;;;;;;;22.92;14.63;;;10.60;99.90;;;;;;4898697;29;20040;-68
2022/04/25 04:50:05;;;;;;;22.45;15.55;;;10.50;99.90;;;;;;4882127;29;20185;-69
2022/04/25 04:52:31;;;;;;;20.77;15.05;;;10.60;99.90;;;;;;4881850;29;20060;-69
2022/04/25 04:54:56;;;;;;;17.20;13.98;;;10.60;99.90;;;;;;4899556;29;20209;-69
2022/04/25 04:57:22;;;;;;;18.08;13.70;;;10.70;99.90;;;;;;4899036;29;20039;-69
2022/04/25 04:59:48;;;;;;;15.65;12.82;;;10.80;99.90;;;;;;4899506;29;20140;-70
2022/04/25 05:02:16;;;;;;;15.48;13.07;;;10.80;99.90;;;;;;4898975;29;20085;-70
2022/04/25 05:04:41;;;;;;;15.48;12.57;;;10.80;99.90;;;;;;4881686;29;20036;-70
2022/04/25 05:07:07;;;;;;;20.73;14.90;;;10.70;99.90;;;;;;4897598;29;20402;-72
2022/04/25 05:09:32;;;;;;;20.08;14.05;;;10.70;99.90;;;;;;4898476;29;20033;-70
2022/04/25 05:11:58;;;;;;;20.92;14.48;;;10.80;99.90;;;;;;4898918;29;20060;-70
2022/04/25 05:14:24;;;;;;;16.05;13.50;;;10.80;99.90;;;;;;4881432;29;20343;-70
2022/04/25 05:16:49;;;;;;;16.63;13.70;;;10.80;99.90;;;;;;4897459;29;20024;-69
2022/04/25 05:19:15;;;;;;;16.20;13.93;;;10.70;99.90;;;;;;4898926;29;20020;-70
2022/04/25 05:21:40;;;;;;;17.73;13.60;;;10.80;99.90;;;;;;4881550;29;20032;-69
2022/04/25 05:24:06;;;;;;;16.63;13.55;;;10.80;99.90;;;;;;4882037;29;20484;-70
2022/04/25 05:26:32;;;;;;;19.27;12.50;;;10.90;99.90;;;;;;4881200;29;20033;-69
2022/04/25 05:28:58;;;;;;;14.45;12.68;;;11.00;99.90;;;;;;4881585;29;20028;-69
2022/04/25 05:31:24;;;;;;;16.55;13.48;;;11.00;99.90;;;;;;4898262;29;20024;-69
2022/04/25 05:33:50;;;;;;;16.25;12.40;;;11.00;99.90;;;;;;4898775;29;20039;-69
2022/04/25 05:36:16;;;;;;;16.10;12.90;;;11.00;99.90;;;;;;4898408;29;20033;-69
2022/04/25 05:38:41;;;;;;;15.00;12.40;;;11.10;99.90;;;;;;4881067;29;20111;-69
2022/04/25 05:41:09;;;;;;;15.23;12.60;;;11.10;99.90;;;;;;4898141;29;20033;-69
2022/04/25 05:43:36;;;;;;;16.38;12.65;;;11.00;99.90;;;;;;4897896;29;20096;-69
2022/04/25 05:46:02;;;;;;;15.30;12.15;;;11.00;99.90;;;;;;4898265;29;20067;-69
2022/04/25 05:53:57;;;;;;;14.40;10.50;;;11.10;99.90;;;;;;4898260;29;20064;-70
2022/04/25 05:56:23;;;;;;;14.10;12.05;;;11.00;99.90;;;;;;4897434;29;20036;-68
2022/04/25 05:58:48;;;;;;;15.82;12.10;;;11.10;99.90;;;;;;4898248;29;20025;-72
2022/04/25 06:01:14;;;;;;;14.10;11.10;;;11.20;99.90;;;;;;4897576;29;20108;-69
2022/04/25 06:03:40;;;;;;;16.48;11.32;;;11.30;99.90;;;;;;4897071;29;20069;-69
2022/04/25 06:06:05;;;;;;;20.30;10.70;;;11.40;99.90;;;;;;4881057;29;20437;-69
2022/04/25 06:08:31;;;;;;;20.20;10.45;;;11.40;99.90;;;;;;4896185;29;20044;-69
2022/04/25 06:10:57;;;;;;;13.80;11.43;;;11.60;99.90;;;;;;4896921;29;20057;-71
2022/04/25 06:13:25;;;;;;;15.52;10.93;;;11.80;99.90;;;;;;4897651;29;20123;-69
2022/04/25 06:15:51;;;;;;;13.40;9.68;;;11.90;99.90;;;;;;4897936;29;20070;-68
2022/04/25 06:18:17;;;;;;;15.55;11.18;;;12.00;99.90;;;;;;4880562;29;20164;-70
2022/04/25 06:20:43;;;;;;;13.98;11.77;;;12.20;99.90;;;;;;4896886;29;20287;-70
2022/04/25 06:23:08;;;;;;;12.55;10.32;;;12.30;99.90;;;;;;4897691;29;20036;-79
2022/04/25 06:25:37;;;;;;;18.33;10.63;;;12.80;99.90;;;;;;4884971;29;20024;-70
2022/04/25 06:28:03;;;;;;;12.20;9.45;;;12.80;99.90;;;;;;4898577;29;20028;-68
2022/04/25 06:30:30;;;;;;;12.60;9.60;;;12.90;99.90;;;;;;4915139;29;20032;-70
2022/04/25 06:33:00;;;;;;;9.77;8.55;;;13.00;99.90;;;;;;4896818;29;20047;-70
2022/04/25 06:35:26;;;;;;;11.40;9.27;;;13.00;99.90;;;;;;4913882;29;20368;-67
2022/04/25 06:37:52;;;;;;;9.50;7.75;;;13.20;99.90;;;;;;4915715;29;20032;-70
2022/04/25 06:40:18;;;;;;;11.48;9.55;;;13.30;99.90;;;;;;4897252;29;20036;-71
2022/04/25 06:42:45;;;;;;;12.32;9.27;;;13.00;99.90;;;;;;4913250;29;20592;-73
2022/04/25 06:45:12;;;;;;;13.88;9.23;;;13.20;99.90;;;;;;4894234;29;20055;-68
2022/04/25 06:47:39;;;;;;;9.88;8.63;;;13.20;99.90;;;;;;4891182;29;20036;-72
2022/04/25 06:50:05;;;;;;;11.65;8.52;;;13.30;99.90;;;;;;4912281;29;20390;-70
2022/04/25 06:52:31;;;;;;;12.38;9.35;;;13.30;99.90;;;;;;4898364;29;20032;-70
2022/04/25 06:54:57;;;;;;;9.88;8.18;;;13.70;99.90;;;;;;4915881;29;20589;-70
2022/04/25 06:57:23;;;;;;;12.55;8.80;;;13.70;99.90;;;;;;4915301;29;20096;-71
2022/04/25 06:59:48;;;;;;;12.77;9.27;;;13.80;99.90;;;;;;4914156;29;20045;-71
2022/04/25 07:02:15;;;;;;;11.73;9.55;;;13.80;99.90;;;;;;4915782;29;20039;-71
2022/04/25 07:04:42;;;;;;;11.13;9.95;;;13.70;99.90;;;;;;4914718;29;20039;-70
2022/04/25 07:07:07;;;;;;;12.73;9.60;;;13.90;99.90;;;;;;4911330;29;20099;-72
2022/04/25 07:09:33;;;;;;;11.40;9.23;;;13.50;99.90;;;;;;4895451;29;20091;-70
2022/04/25 07:12:00;;;;;;;13.93;9.73;;;13.30;99.90;;;;;;4893881;29;20109;-71
2022/04/25 07:14:28;;;;;;;12.68;9.45;;;12.80;99.90;;;;;;4893530;29;20040;-68
2022/04/25 07:16:57;;;;;;;14.23;10.80;;;12.90;99.90;;;;;;4878344;29;20044;-73
2022/04/25 07:19:22;;;;;;;14.88;10.25;;;12.70;99.90;;;;;;4894056;29;20056;-71
2022/04/25 07:30:02;;;;;;;15.77;10.38;;;13.10;99.90;;;;;;4892776;29;20047;-72
2022/04/25 07:32:28;;;;;;;14.38;7.35;;;13.00;99.90;;;;;;4892866;29;20115;-67
2022/04/25 07:34:53;;;;;;;10.90;8.88;;;13.40;99.90;;;;;;4893553;29;20096;-73
2022/04/25 07:37:22;;;;;;;10.30;8.48;;;13.70;99.90;;;;;;4894117;29;20471;-69
2022/04/25 07:39:48;;;;;;;11.15;9.20;;;13.60;99.90;;;;;;4892965;29;20136;-68
2022/04/25 07:42:18;;;;;;;13.82;9.05;;;13.80;99.90;;;;;;4893074;29;20055;-69
2022/04/25 07:44:47;;;;;;;7.88;7.07;;;14.20;99.90;;;;;;4892856;29;20036;-68
2022/04/25 07:47:16;;;;;;;7.35;6.65;;;14.70;99.90;;;;;;4877706;29;20166;-78
2022/04/25 07:49:42;;;;;;;11.15;5.45;;;14.90;99.90;;;;;;4888953;29;20043;-76
2022/04/25 07:52:09;;;;;;;8.98;5.97;;;15.70;99.90;;;;;;4897952;29;20032;-79
2022/04/25 07:54:35;;;;;;;8.43;6.55;;;16.00;99.90;;;;;;4897180;29;20091;-77
2022/04/25 07:57:03;;;;;;;11.68;6.03;;;16.20;99.90;;;;;;4897538;29;20032;-77
2022/04/25 07:59:29;;;;;;;10.68;3.83;;;16.30;99.90;;;;;;4914582;29;20039;-70
2022/04/25 08:01:55;;;;;;;10.52;5.30;;;16.80;99.90;;;;;;4897609;29;20028;-76
2022/04/25 08:04:21;;;;;;;8.15;6.15;;;17.10;99.90;;;;;;4901033;29;20064;-70
2022/04/25 08:06:46;;;;;;;7.20;6.45;;;17.60;99.50;;;;;;4911294;29;20036;-71
2022/04/25 08:09:12;;;;;;;6.45;5.85;;;17.10;98.20;;;;;;4914545;29;20036;-70
2022/04/25 08:11:38;;;;;;;7.07;6.38;;;17.20;97.40;;;;;;4907193;29;20404;-70
2022/04/25 08:19:32;;;;;;;9.90;5.57;;;16.90;96.60;;;;;;4920313;29;20032;-69
2022/04/25 08:21:58;;;;;;;6.15;5.55;;;17.30;96.20;;;;;;4917327;29;20024;-69
2022/04/25 08:24:24;;;;;;;6.80;6.18;;;16.70;96.60;;;;;;4918557;29;20154;-70
2022/04/25 08:26:50;;;;;;;5.50;5.00;;;16.30;97.20;;;;;;4920098;29;20847;-70
2022/04/25 08:29:16;;;;;;;7.72;5.85;;;16.20;97.20;;;;;;4918246;29;20039;-69
2022/04/25 08:31:41;;;;;;;6.15;5.55;;;16.10;97.00;;;;;;4918836;29;20043;-70
2022/04/25 08:34:09;;;;;;;7.22;6.30;;;16.00;97.50;;;;;;4920273;29;20044;-70
2022/04/25 08:36:35;;;;;;;9.25;7.18;;;15.80;97.50;;;;;;4919185;29;20050;-70
2022/04/25 08:39:02;;;;;;;10.02;6.53;;;15.80;97.70;;;;;;4921081;29;20028;-70
2022/04/25 08:41:31;;;;;;;9.63;6.85;;;15.80;98.00;;;;;;4919974;29;20040;-70
2022/04/25 08:43:58;;;;;;;8.07;7.28;;;15.90;97.90;;;;;;4920520;29;20158;-71
2022/04/25 08:46:23;;;;;;;8.07;7.05;;;15.90;97.90;;;;;;4921812;29;20088;-70
2022/04/25 08:48:50;;;;;;;9.25;7.93;;;15.90;97.90;;;;;;4920311;29;20115;-70
2022/04/25 08:51:16;;;;;;;9.40;7.05;;;16.00;98.00;;;;;;4920227;29;20168;-70
2022/04/25 08:53:44;;;;;;;11.98;7.57;;;16.10;98.30;;;;;;4902579;29;20466;-68
2022/04/25 08:56:12;;;;;;;11.45;6.50;;;16.40;97.90;;;;;;4903551;29;20040;-68
2022/04/25 08:58:41;;;;;;;8.82;6.93;;;16.90;97.40;;;;;;4919445;29;20073;-68
2022/04/25 09:01:10;;;;;;;11.38;7.68;;;17.30;96.20;;;;;;4903414;29;20115;-70
2022/04/25 09:03:36;;;;;;;11.65;8.27;;;18.00;95.90;;;;;;4919822;29;20031;-67
2022/04/25 09:06:03;;;;;;;8.63;7.72;;;18.50;95.40;;;;;;4903126;29;20028;-70
2022/04/25 09:08:28;;;;;;;10.00;7.65;;;18.80;94.70;;;;;;4903179;29;20063;-70
2022/04/25 09:12:09;;;;;;;9.18;7.78;;;19.20;94.40;;;;;;4918927;29;20127;-70
2022/04/25 09:13:44;;;;;;;10.57;8.05;;;19.70;93.70;;;;;;4919219;29;20039;-70
2022/04/25 09:16:16;;;;;;;8.07;6.10;;;19.40;93.80;;;;;;4902824;29;20127;-68
2022/04/25 09:18:43;;;;;;;11.48;7.47;;;19.80;93.20;;;;;;4919446;29;20045;-70
2022/04/25 09:21:14;;;;;;;8.98;7.45;;;19.60;92.80;;;;;;4919812;29;20060;-70
2022/04/25 09:23:40;;;;;;;9.50;7.97;;;19.30;92.90;;;;;;4902492;29;20035;-68
2022/04/25 09:26:14;;;;;;;10.68;7.80;;;19.40;93.30;;;;;;4917749;29;20036;-70
2022/04/25 09:28:54;;;;;;;8.88;7.97;;;19.40;92.90;;;;;;4899142;29;20039;-69
2022/04/25 09:31:25;;;;;;;10.17;8.33;;;19.30;93.20;;;;;;4917170;29;20036;-70
2022/04/25 09:33:51;;;;;;;9.68;8.60;;;19.30;92.90;;;;;;4899405;29;20107;-67
2022/04/25 09:36:17;;;;;;;8.55;7.22;;;19.30;92.50;;;;;;4916832;29;20043;-70
2022/04/25 09:38:44;;;;;;;10.60;8.27;;;19.30;93.10;;;;;;4915836;29;20036;-68
2022/04/25 09:41:15;;;;;;;9.75;8.75;;;19.20;92.80;;;;;;4916668;29;20055;-70
2022/04/25 09:43:42;;;;;;;10.75;9.65;;;18.70;93.00;;;;;;4899033;29;20054;-69
2022/04/25 09:46:10;;;;;;;14.18;8.95;;;17.50;93.40;;;;;;4916536;29;20032;-70
2022/04/25 09:48:39;;;;;;;12.32;10.10;;;17.30;94.10;;;;;;4898856;29;20032;-69
2022/04/25 09:51:07;;;;;;;9.57;8.60;;;16.60;94.10;;;;;;4899206;29;20033;-70
2022/04/25 09:53:44;;;;;;;9.95;8.27;;;17.00;93.70;;;;;;4916381;29;20458;-71
2022/04/25 09:56:30;;;;;;;11.15;9.05;;;17.50;93.10;;;;;;4899558;29;20207;-69
2022/04/25 09:59:06;;;;;;;11.25;9.48;;;18.20;93.50;;;;;;4915701;29;20036;-70
2022/04/25 10:01:34;;;;;;;10.50;9.40;;;17.90;93.50;;;;;;4916467;29;20123;-70
2022/04/25 10:04:01;;;;;;;11.88;9.45;;;18.00;93.10;;;;;;4898424;29;20032;-69
2022/04/25 10:06:32;;;;;;;11.00;9.32;;;18.00;92.90;;;;;;4916155;29;20126;-69
2022/04/25 10:08:59;;;;;;;;;;;17.30;94.20;;;;;;4916254;29;20024;-69
2022/04/25 10:11:27;;;;;;;9.23;7.93;;;17.80;94.00;;;;;;4916280;29;19923;-70
2022/04/25 10:13:54;;;;;;;9.65;8.57;;;18.80;93.60;;;;;;4898151;29;20105;-69
2022/04/25 10:16:20;;;;;;;10.18;8.48;;;19.10;92.50;;;;;;4898838;29;20438;-69
2022/04/25 10:18:46;;;;;;;9.00;7.38;;;18.80;92.90;;;;;;4898411;29;20091;-69
2022/04/25 10:21:14;;;;;;;12.10;7.45;;;19.30;92.60;;;;;;4915970;29;20032;-70
2022/04/25 10:23:40;;;;;;;9.95;8.00;;;19.80;91.80;;;;;;4898358;29;20032;-71
2022/04/25 10:26:06;;;;;;;8.88;8.02;;;19.80;91.50;;;;;;4915649;29;20430;-69
2022/04/25 10:28:45;;;;;;;8.43;7.63;;;19.50;90.40;;;;;;4898705;29;20153;-70
2022/04/25 10:31:27;;;;;;;8.32;7.13;;;19.00;91.10;;;;;;4898721;29;20061;-69
2022/04/25 10:33:55;;;;;;;9.27;7.63;;;19.40;91.00;;;;;;4898260;29;20042;-69
2022/04/25 10:36:39;;;;;;;10.50;7.43;;;19.00;91.20;;;;;;4915143;29;20077;-69
2022/04/25 10:39:20;;;;;;;10.60;7.32;;;19.40;91.00;;;;;;4898577;29;20065;-70
2022/04/25 10:44:44;;;;;;;9.75;8.80;;;19.50;90.50;;;;;;4914650;29;20131;-71
2022/04/25 10:47:16;;;;;;;8.85;7.93;;;19.00;90.40;;;;;;4915448;29;20028;-70
2022/04/25 10:49:45;;;;;;;8.80;7.75;;;19.00;90.80;;;;;;4914683;29;20063;-68
2022/04/25 10:55:19;;;;;;;15.10;7.82;;;18.90;90.30;;;;;;4915689;29;20056;-69
2022/04/25 10:58:03;;;;;;;10.10;6.63;;;18.70;90.40;;;;;;4914388;29;20066;-69
2022/04/25 11:00:41;;;;;;;7.00;6.30;;;18.40;90.90;;;;;;4915314;29;20134;-70
2022/04/25 11:03:15;;;;;;;7.38;5.82;;;18.70;90.90;;;;;;4898014;29;20120;-68
2022/04/25 11:05:43;;;;;;;7.82;7.03;;;18.90;90.40;;;;;;4897523;29;20125;-66
2022/04/25 11:08:24;;;;;;;9.25;6.63;;;19.20;90.60;;;;;;4898405;29;20032;-70
2022/04/25 11:10:51;;;;;;;8.77;6.47;;;19.90;90.20;;;;;;4914292;29;20491;-70
2022/04/25 11:13:18;;;;;;;13.75;7.00;;;20.40;88.70;;;;;;4897904;29;20036;-71
2022/04/25 11:15:52;;;;;;;9.13;6.80;;;20.60;88.10;;;;;;4914720;29;20040;-69
2022/04/25 11:18:23;;;;;;;7.18;6.47;;;20.70;87.20;;;;;;4903866;29;20395;-71
2022/04/25 11:20:56;;;;;;;7.03;5.82;;;20.60;88.00;;;;;;4906612;29;20040;-70
2022/04/25 11:23:30;;;;;;;9.07;6.90;;;21.00;87.20;;;;;;4913741;29;20112;-71
2022/04/25 11:25:59;;;;;;;9.80;6.82;;;19.90;87.70;;;;;;4914276;29;20316;-71
2022/04/25 11:28:25;;;;;;;8.35;7.00;;;20.40;88.10;;;;;;4897727;29;20119;-71
2022/04/25 11:31:13;;;;;;;5.93;5.32;;;21.00;87.50;;;;;;4914838;29;20042;-72
2022/04/25 11:33:46;;;;;;;8.60;6.45;;;21.60;86.50;;;;;;4915204;29;20038;-72
2022/04/25 11:36:13;;;;;;;6.75;5.72;;;21.30;85.70;;;;;;4913392;29;20044;-73
2022/04/25 11:41:30;;;;;;;8.10;6.63;;;20.00;88.20;;;;;;4914376;29;20381;-71
2022/04/25 11:43:57;;;;;;;7.15;6.53;;;19.30;89.50;;;;;;4914220;29;20063;-71
2022/04/25 11:46:24;;;;;;;8.05;7.13;;;19.20;90.00;;;;;;4909015;29;20148;-71
2022/04/25 11:48:51;;;;;;;25.25;7.82;;;19.20;90.10;;;;;;4913198;29;20044;-70
2022/04/25 11:51:28;;;;;;;9.27;6.95;;;19.20;90.30;;;;;;4915061;29;20036;-71
2022/04/25 11:53:57;;;;;;;8.85;6.50;;;18.90;89.80;;;;;;4912419;29;20032;-69
2022/04/25 11:56:23;;;;;;;10.95;6.10;;;18.60;90.20;;;;;;4913348;29;20032;-70
2022/04/25 11:58:50;;;;;;;7.68;6.03;;;18.50;90.30;;;;;;4913986;29;20115;-68
2022/04/25 12:01:41;;;;;;;7.10;6.38;;;18.50;90.30;;;;;;4909565;29;20036;-70
2022/04/25 12:04:21;;;;;;;;;;;18.70;90.00;;;;;;4887201;29;20048;-71
2022/04/25 12:06:56;;;;;;;8.32;6.18;;;18.60;90.20;;;;;;4895995;29;20290;-69
2022/04/25 12:18:25;;;;;;;5.18;4.35;;;18.10;89.00;;;;;;4913366;29;20078;-67
2022/04/25 12:21:05;;;;;;;5.55;5.05;;;17.90;87.80;;;;;;4913379;29;20036;-66
2022/04/25 12:23:33;;;;;;;6.40;5.78;;;17.40;88.30;;;;;;4914292;29;20051;-67
2022/04/25 12:26:03;;;;;;;5.63;5.13;;;17.10;89.60;;;;;;4911041;29;20408;-67
2022/04/25 12:28:31;;;;;;;6.88;5.43;;;16.90;90.30;;;;;;4903956;29;20047;-67
2022/04/25 12:31:01;;;;;;;6.20;5.60;;;17.00;90.50;;;;;;4910593;29;20024;-67
2022/04/25 12:33:40;;;;;;;8.48;5.80;;;17.50;91.50;;;;;;4912067;29;20039;-69
2022/04/25 12:36:18;;;;;;;6.57;5.32;;;17.70;92.20;;;;;;4894492;29;20036;-68
2022/04/25 12:39:14;;;;;;;6.18;4.43;;;18.40;92.10;;;;;;4893993;29;20036;-78
2022/04/25 12:41:51;;;;;;;6.85;5.78;;;19.30;91.60;;;;;;4895306;29;20040;-76
2022/04/25 12:44:17;;;;;;;9.27;5.45;;;20.10;90.90;;;;;;4902917;29;20108;-76
2022/04/25 12:46:52;;;;;;;5.65;4.78;;;21.00;88.90;;;;;;4909792;29;20063;-77
2022/04/25 12:49:34;;;;;;;4.95;4.53;;;21.70;87.50;;;;;;4901994;29;20021;-77
2022/04/25 12:52:01;;;;;;;4.82;4.43;;;22.30;86.20;;;;;;4907750;29;20036;-77
2022/04/25 12:54:43;;;;;;;5.90;4.63;;;22.20;81.30;;;;;;4907769;29;20481;-77
2022/04/25 12:57:15;;;;;;;5.00;4.57;;;22.00;81.00;;;;;;4908982;29;20114;-75
2022/04/25 13:00:04;;;;;;;5.15;4.57;;;21.70;82.80;;;;;;4914655;29;20120;-75
2022/04/25 13:02:37;;;;;;;5.68;4.15;;;22.10;82.30;;;;;;4917115;29;20500;-76
2022/04/25 13:05:12;;;;;;;4.47;4.07;;;22.40;81.30;;;;;;4917084;29;20287;-76
2022/04/25 13:07:43;;;;;;;5.50;4.38;;;22.70;80.10;;;;;;4916024;29;20401;-76
2022/04/25 13:10:12;;;;;;;6.53;4.65;;;23.20;79.00;;;;;;4916098;29;20078;-67
2022/04/25 13:12:40;;;;;;;6.97;4.97;;;22.10;80.00;;;;;;4905338;29;20374;-76
2022/04/25 13:15:18;;;;;;;6.05;5.50;;;22.50;80.00;;;;;;4913919;29;20127;-76
2022/04/25 13:17:45;;;;;;;7.35;4.97;;;21.30;80.00;;;;;;4927273;29;20195;-76
2022/04/25 13:20:15;;;;;;;6.53;5.30;;;20.00;82.30;;;;;;4915765;29;20424;-76
2022/04/25 13:22:44;;;;;;;5.70;5.10;;;19.60;82.40;;;;;;4915875;29;20036;-75
2022/04/25 13:25:12;;;;;;;5.47;4.93;;;19.00;83.50;;;;;;4905648;29;20169;-76
2022/04/25 13:27:39;;;;;;;7.50;5.75;;;18.70;85.10;;;;;;4911463;29;20047;-76